sensor_id;sensor_type;location;lat;lon;timestamp;P1;durP1;ratioP1;P2;durP2;ratioP2
26082;SDS011;13848;49.018;12.078;2023-02-15T00:00:51;23.02;;;9.63;;
26082;SDS011;13848;49.018;12.078;2023-02-15T00:03:17;24.13;;;9.80;;
26082;SDS011;13848;49.018;12.078;2023-02-15T00:05:44;20.67;;;9.10;;
26082;SDS011;13848;49.018;12.078;2023-02-15T00:08:10;22.30;;;9.43;;
26082;SDS011;13848;49.018;12.078;2023-02-15T00:10:36;25.33;;;10.35;;
26082;SDS011;13848;49.018;12.078;2023-02-15T00:13:01;19.60;;;8.27;;
26082;SDS011;13848;49.018;12.078;2023-02-15T00:15:27;24.30;;;9.95;;
26082;SDS011;13848;49.018;12.078;2023-02-15T00:17:53;19.13;;;8.70;;
26082;SDS011;13848;49.018;12.078;2023-02-15T00:20:19;22.80;;;9.23;;
26082;SDS011;13848;49.018;12.078;2023-02-15T00:22:47;20.75;;;8.45;;
26082;SDS011;13848;49.018;12.078;2023-02-15T00:25:13;23.85;;;9.35;;
26082;SDS011;13848;49.018;12.078;2023-02-15T00:27:38;23.67;;;8.98;;
26082;SDS011;13848;49.018;12.078;2023-02-15T00:30:05;21.63;;;9.20;;
26082;SDS011;13848;49.018;12.078;2023-02-15T00:32:31;24.02;;;9.05;;
26082;SDS011;13848;49.018;12.078;2023-02-15T00:34:57;23.23;;;9.23;;
26082;SDS011;13848;49.018;12.078;2023-02-15T00:37:23;22.92;;;9.25;;
26082;SDS011;13848;49.018;12.078;2023-02-15T00:39:51;20.35;;;9.18;;
26082;SDS011;13848;49.018;12.078;2023-02-15T00:42:16;20.58;;;8.82;;
26082;SDS011;13848;49.018;12.078;2023-02-15T00:44:42;25.52;;;9.32;;
26082;SDS011;13848;49.018;12.078;2023-02-15T00:47:08;24.52;;;9.60;;
26082;SDS011;13848;49.018;12.078;2023-02-15T00:49:34;23.83;;;9.68;;
26082;SDS011;13848;49.018;12.078;2023-02-15T00:52:00;25.23;;;9.52;;
26082;SDS011;13848;49.018;12.078;2023-02-15T00:54:26;24.45;;;9.10;;
26082;SDS011;13848;49.018;12.078;2023-02-15T00:56:53;24.55;;;10.10;;
26082;SDS011;13848;49.018;12.078;2023-02-15T00:59:19;20.70;;;8.95;;
26082;SDS011;13848;49.018;12.078;2023-02-15T01:01:45;20.45;;;8.48;;
26082;SDS011;13848;49.018;12.078;2023-02-15T01:04:11;22.90;;;9.52;;
26082;SDS011;13848;49.018;12.078;2023-02-15T01:06:37;25.58;;;9.43;;
26082;SDS011;13848;49.018;12.078;2023-02-15T01:09:03;24.85;;;9.77;;
26082;SDS011;13848;49.018;12.078;2023-02-15T01:11:29;23.73;;;9.38;;
26082;SDS011;13848;49.018;12.078;2023-02-15T01:13:57;22.38;;;9.32;;
26082;SDS011;13848;49.018;12.078;2023-02-15T01:16:23;24.02;;;9.48;;
26082;SDS011;13848;49.018;12.078;2023-02-15T01:18:51;21.67;;;9.07;;
26082;SDS011;13848;49.018;12.078;2023-02-15T01:21:17;20.98;;;7.93;;
26082;SDS011;13848;49.018;12.078;2023-02-15T01:23:45;24.20;;;9.35;;
26082;SDS011;13848;49.018;12.078;2023-02-15T01:26:12;25.17;;;9.75;;
26082;SDS011;13848;49.018;12.078;2023-02-15T01:28:39;26.00;;;9.23;;
26082;SDS011;13848;49.018;12.078;2023-02-15T01:31:07;27.02;;;9.82;;
26082;SDS011;13848;49.018;12.078;2023-02-15T01:33:34;22.23;;;9.32;;
26082;SDS011;13848;49.018;12.078;2023-02-15T01:36:00;23.98;;;9.70;;
26082;SDS011;13848;49.018;12.078;2023-02-15T01:38:26;21.05;;;8.95;;
26082;SDS011;13848;49.018;12.078;2023-02-15T01:40:53;25.50;;;9.40;;
26082;SDS011;13848;49.018;12.078;2023-02-15T01:43:20;25.52;;;9.20;;
26082;SDS011;13848;49.018;12.078;2023-02-15T01:45:51;24.17;;;9.55;;
26082;SDS011;13848;49.018;12.078;2023-02-15T01:48:26;21.30;;;9.57;;
26082;SDS011;13848;49.018;12.078;2023-02-15T01:50:54;22.20;;;8.38;;
26082;SDS011;13848;49.018;12.078;2023-02-15T01:53:24;20.52;;;8.07;;
26082;SDS011;13848;49.018;12.078;2023-02-15T01:55:53;23.88;;;9.27;;
26082;SDS011;13848;49.018;12.078;2023-02-15T01:58:23;22.90;;;8.48;;
26082;SDS011;13848;49.018;12.078;2023-02-15T02:00:51;25.65;;;8.80;;
26082;SDS011;13848;49.018;12.078;2023-02-15T02:03:18;28.88;;;9.32;;
26082;SDS011;13848;49.018;12.078;2023-02-15T02:05:54;22.27;;;9.27;;
26082;SDS011;13848;49.018;12.078;2023-02-15T02:08:20;26.33;;;10.13;;
26082;SDS011;13848;49.018;12.078;2023-02-15T02:10:46;28.08;;;9.90;;
26082;SDS011;13848;49.018;12.078;2023-02-15T02:13:12;24.95;;;9.05;;
26082;SDS011;13848;49.018;12.078;2023-02-15T02:15:39;27.83;;;9.57;;
26082;SDS011;13848;49.018;12.078;2023-02-15T02:18:15;21.92;;;8.55;;
26082;SDS011;13848;49.018;12.078;2023-02-15T02:20:58;23.55;;;8.57;;
26082;SDS011;13848;49.018;12.078;2023-02-15T02:23:43;22.05;;;8.25;;
26082;SDS011;13848;49.018;12.078;2023-02-15T02:29:37;24.58;;;8.35;;
26082;SDS011;13848;49.018;12.078;2023-02-15T02:32:43;23.85;;;8.82;;
26082;SDS011;13848;49.018;12.078;2023-02-15T02:35:41;25.35;;;9.00;;
26082;SDS011;13848;49.018;12.078;2023-02-15T02:38:16;20.80;;;8.05;;
26082;SDS011;13848;49.018;12.078;2023-02-15T02:40:51;22.17;;;8.32;;
26082;SDS011;13848;49.018;12.078;2023-02-15T02:43:21;25.00;;;8.60;;
26082;SDS011;13848;49.018;12.078;2023-02-15T02:45:55;25.17;;;8.73;;
26082;SDS011;13848;49.018;12.078;2023-02-15T02:48:25;26.23;;;9.13;;
26082;SDS011;13848;49.018;12.078;2023-02-15T02:50:55;25.05;;;8.88;;
26082;SDS011;13848;49.018;12.078;2023-02-15T02:53:21;26.73;;;9.85;;
26082;SDS011;13848;49.018;12.078;2023-02-15T02:55:48;28.63;;;9.52;;
26082;SDS011;13848;49.018;12.078;2023-02-15T02:58:18;26.80;;;10.00;;
26082;SDS011;13848;49.018;12.078;2023-02-15T03:00:50;24.45;;;9.15;;
26082;SDS011;13848;49.018;12.078;2023-02-15T03:03:20;21.52;;;8.98;;
26082;SDS011;13848;49.018;12.078;2023-02-15T03:08:20;26.23;;;9.40;;
26082;SDS011;13848;49.018;12.078;2023-02-15T03:10:49;29.65;;;9.88;;
26082;SDS011;13848;49.018;12.078;2023-02-15T03:13:18;24.30;;;9.43;;
26082;SDS011;13848;49.018;12.078;2023-02-15T03:15:45;23.27;;;9.30;;
26082;SDS011;13848;49.018;12.078;2023-02-15T03:18:12;25.10;;;9.82;;
26082;SDS011;13848;49.018;12.078;2023-02-15T03:20:39;28.30;;;9.77;;
26082;SDS011;13848;49.018;12.078;2023-02-15T03:23:07;22.77;;;8.30;;
26082;SDS011;13848;49.018;12.078;2023-02-15T03:25:40;23.45;;;9.23;;
26082;SDS011;13848;49.018;12.078;2023-02-15T03:28:09;18.25;;;8.25;;
26082;SDS011;13848;49.018;12.078;2023-02-15T03:30:37;25.02;;;9.40;;
26082;SDS011;13848;49.018;12.078;2023-02-15T03:33:06;21.83;;;9.85;;
26082;SDS011;13848;49.018;12.078;2023-02-15T03:35:36;23.60;;;8.93;;
26082;SDS011;13848;49.018;12.078;2023-02-15T03:38:11;27.73;;;9.38;;
26082;SDS011;13848;49.018;12.078;2023-02-15T03:40:43;27.27;;;9.57;;
26082;SDS011;13848;49.018;12.078;2023-02-15T03:43:12;21.33;;;8.80;;
26082;SDS011;13848;49.018;12.078;2023-02-15T03:45:44;25.10;;;9.05;;
26082;SDS011;13848;49.018;12.078;2023-02-15T03:48:14;19.85;;;8.73;;
26082;SDS011;13848;49.018;12.078;2023-02-15T03:50:40;23.48;;;9.77;;
26082;SDS011;13848;49.018;12.078;2023-02-15T03:53:07;33.42;;;8.80;;
26082;SDS011;13848;49.018;12.078;2023-02-15T03:55:38;32.72;;;10.25;;
26082;SDS011;13848;49.018;12.078;2023-02-15T03:58:04;26.77;;;9.18;;
26082;SDS011;13848;49.018;12.078;2023-02-15T04:00:30;22.80;;;9.23;;
26082;SDS011;13848;49.018;12.078;2023-02-15T04:03:06;27.55;;;9.15;;
26082;SDS011;13848;49.018;12.078;2023-02-15T04:05:38;42.47;;;9.25;;
26082;SDS011;13848;49.018;12.078;2023-02-15T04:08:04;23.13;;;9.43;;
26082;SDS011;13848;49.018;12.078;2023-02-15T04:10:30;22.70;;;9.18;;
26082;SDS011;13848;49.018;12.078;2023-02-15T04:12:57;24.75;;;9.07;;
26082;SDS011;13848;49.018;12.078;2023-02-15T04:15:26;34.78;;;8.65;;
26082;SDS011;13848;49.018;12.078;2023-02-15T04:17:52;28.05;;;9.95;;
26082;SDS011;13848;49.018;12.078;2023-02-15T04:20:18;30.17;;;9.52;;
26082;SDS011;13848;49.018;12.078;2023-02-15T04:22:44;28.65;;;9.02;;
26082;SDS011;13848;49.018;12.078;2023-02-15T04:25:10;30.08;;;10.15;;
26082;SDS011;13848;49.018;12.078;2023-02-15T04:27:36;33.72;;;10.27;;
26082;SDS011;13848;49.018;12.078;2023-02-15T04:30:05;25.60;;;9.82;;
26082;SDS011;13848;49.018;12.078;2023-02-15T04:32:32;25.20;;;9.25;;
26082;SDS011;13848;49.018;12.078;2023-02-15T04:34:58;24.83;;;9.73;;
26082;SDS011;13848;49.018;12.078;2023-02-15T04:37:24;37.92;;;9.50;;
26082;SDS011;13848;49.018;12.078;2023-02-15T04:39:50;27.40;;;10.32;;
26082;SDS011;13848;49.018;12.078;2023-02-15T04:42:16;24.88;;;9.82;;
26082;SDS011;13848;49.018;12.078;2023-02-15T04:44:42;31.52;;;10.07;;
26082;SDS011;13848;49.018;12.078;2023-02-15T04:47:09;27.25;;;10.25;;
26082;SDS011;13848;49.018;12.078;2023-02-15T04:49:35;34.13;;;9.77;;
26082;SDS011;13848;49.018;12.078;2023-02-15T04:52:01;28.05;;;10.07;;
26082;SDS011;13848;49.018;12.078;2023-02-15T04:54:27;25.17;;;9.50;;
26082;SDS011;13848;49.018;12.078;2023-02-15T04:56:53;23.13;;;9.80;;
26082;SDS011;13848;49.018;12.078;2023-02-15T04:59:19;26.77;;;10.52;;
26082;SDS011;13848;49.018;12.078;2023-02-15T05:01:45;25.40;;;9.85;;
26082;SDS011;13848;49.018;12.078;2023-02-15T05:04:12;26.00;;;10.02;;
26082;SDS011;13848;49.018;12.078;2023-02-15T05:06:38;24.90;;;9.15;;
26082;SDS011;13848;49.018;12.078;2023-02-15T05:09:04;24.05;;;9.25;;
26082;SDS011;13848;49.018;12.078;2023-02-15T05:11:30;24.23;;;9.65;;
26082;SDS011;13848;49.018;12.078;2023-02-15T05:13:56;22.63;;;9.65;;
26082;SDS011;13848;49.018;12.078;2023-02-15T05:16:22;20.95;;;9.82;;
26082;SDS011;13848;49.018;12.078;2023-02-15T05:18:48;27.83;;;9.63;;
26082;SDS011;13848;49.018;12.078;2023-02-15T05:21:15;23.08;;;9.85;;
26082;SDS011;13848;49.018;12.078;2023-02-15T05:23:41;24.10;;;10.15;;
26082;SDS011;13848;49.018;12.078;2023-02-15T05:26:08;24.60;;;9.75;;
26082;SDS011;13848;49.018;12.078;2023-02-15T05:28:35;26.85;;;10.50;;
26082;SDS011;13848;49.018;12.078;2023-02-15T05:31:04;24.33;;;9.32;;
26082;SDS011;13848;49.018;12.078;2023-02-15T05:33:32;22.38;;;9.10;;
26082;SDS011;13848;49.018;12.078;2023-02-15T05:35:59;25.10;;;9.55;;
26082;SDS011;13848;49.018;12.078;2023-02-15T05:38:26;22.63;;;10.27;;
26082;SDS011;13848;49.018;12.078;2023-02-15T05:40:52;22.45;;;9.55;;
26082;SDS011;13848;49.018;12.078;2023-02-15T05:43:19;26.10;;;10.05;;
26082;SDS011;13848;49.018;12.078;2023-02-15T05:45:45;26.05;;;9.73;;
26082;SDS011;13848;49.018;12.078;2023-02-15T05:48:12;23.38;;;8.95;;
26082;SDS011;13848;49.018;12.078;2023-02-15T05:50:38;24.63;;;9.60;;
26082;SDS011;13848;49.018;12.078;2023-02-15T05:53:04;24.13;;;9.63;;
26082;SDS011;13848;49.018;12.078;2023-02-15T05:55:31;34.95;;;9.70;;
26082;SDS011;13848;49.018;12.078;2023-02-15T05:57:57;73.32;;;10.50;;
26082;SDS011;13848;49.018;12.078;2023-02-15T06:00:23;29.02;;;9.77;;
26082;SDS011;13848;49.018;12.078;2023-02-15T06:02:49;22.60;;;9.25;;
26082;SDS011;13848;49.018;12.078;2023-02-15T06:05:15;26.88;;;11.02;;
26082;SDS011;13848;49.018;12.078;2023-02-15T06:07:42;27.88;;;10.73;;
26082;SDS011;13848;49.018;12.078;2023-02-15T06:10:08;38.72;;;11.98;;
26082;SDS011;13848;49.018;12.078;2023-02-15T06:12:36;39.13;;;11.90;;
26082;SDS011;13848;49.018;12.078;2023-02-15T06:15:02;36.80;;;10.27;;
26082;SDS011;13848;49.018;12.078;2023-02-15T06:17:28;27.52;;;10.40;;
26082;SDS011;13848;49.018;12.078;2023-02-15T06:19:54;29.90;;;10.00;;
26082;SDS011;13848;49.018;12.078;2023-02-15T06:22:20;28.17;;;10.35;;
26082;SDS011;13848;49.018;12.078;2023-02-15T06:24:46;24.65;;;9.57;;
26082;SDS011;13848;49.018;12.078;2023-02-15T06:27:12;58.53;;;11.13;;
26082;SDS011;13848;49.018;12.078;2023-02-15T06:29:39;26.10;;;10.05;;
26082;SDS011;13848;49.018;12.078;2023-02-15T06:32:05;32.53;;;10.50;;
26082;SDS011;13848;49.018;12.078;2023-02-15T06:34:31;26.67;;;9.80;;
26082;SDS011;13848;49.018;12.078;2023-02-15T06:36:57;28.15;;;11.02;;
26082;SDS011;13848;49.018;12.078;2023-02-15T06:39:23;38.22;;;9.85;;
26082;SDS011;13848;49.018;12.078;2023-02-15T06:41:51;27.05;;;10.55;;
26082;SDS011;13848;49.018;12.078;2023-02-15T06:44:17;25.02;;;10.10;;
26082;SDS011;13848;49.018;12.078;2023-02-15T06:46:44;35.60;;;9.80;;
26082;SDS011;13848;49.018;12.078;2023-02-15T06:49:10;31.95;;;10.48;;
26082;SDS011;13848;49.018;12.078;2023-02-15T06:51:36;39.55;;;10.82;;
26082;SDS011;13848;49.018;12.078;2023-02-15T06:54:02;35.33;;;10.18;;
26082;SDS011;13848;49.018;12.078;2023-02-15T06:56:29;40.28;;;9.55;;
26082;SDS011;13848;49.018;12.078;2023-02-15T06:58:55;28.42;;;9.85;;
26082;SDS011;13848;49.018;12.078;2023-02-15T07:01:21;29.90;;;9.75;;
26082;SDS011;13848;49.018;12.078;2023-02-15T07:03:48;29.02;;;10.30;;
26082;SDS011;13848;49.018;12.078;2023-02-15T07:06:14;29.98;;;10.77;;
26082;SDS011;13848;49.018;12.078;2023-02-15T07:08:40;26.90;;;10.20;;
26082;SDS011;13848;49.018;12.078;2023-02-15T07:11:06;42.35;;;10.98;;
26082;SDS011;13848;49.018;12.078;2023-02-15T07:13:32;27.70;;;9.98;;
26082;SDS011;13848;49.018;12.078;2023-02-15T07:15:58;28.48;;;11.23;;
26082;SDS011;13848;49.018;12.078;2023-02-15T07:18:24;33.15;;;10.80;;
26082;SDS011;13848;49.018;12.078;2023-02-15T07:20:51;29.33;;;10.57;;
26082;SDS011;13848;49.018;12.078;2023-02-15T07:23:17;40.25;;;11.23;;
26082;SDS011;13848;49.018;12.078;2023-02-15T07:25:43;27.83;;;10.55;;
26082;SDS011;13848;49.018;12.078;2023-02-15T07:28:09;27.55;;;9.68;;
26082;SDS011;13848;49.018;12.078;2023-02-15T07:30:35;32.10;;;10.20;;
26082;SDS011;13848;49.018;12.078;2023-02-15T07:33:01;25.25;;;10.80;;
26082;SDS011;13848;49.018;12.078;2023-02-15T07:35:27;35.92;;;10.50;;
26082;SDS011;13848;49.018;12.078;2023-02-15T07:37:55;27.67;;;10.55;;
26082;SDS011;13848;49.018;12.078;2023-02-15T07:40:20;28.35;;;10.20;;
26082;SDS011;13848;49.018;12.078;2023-02-15T07:42:46;30.27;;;10.52;;
26082;SDS011;13848;49.018;12.078;2023-02-15T07:45:12;37.50;;;10.93;;
26082;SDS011;13848;49.018;12.078;2023-02-15T07:47:38;27.70;;;10.82;;
26082;SDS011;13848;49.018;12.078;2023-02-15T07:50:05;27.40;;;10.90;;
26082;SDS011;13848;49.018;12.078;2023-02-15T07:52:31;25.38;;;9.90;;
26082;SDS011;13848;49.018;12.078;2023-02-15T07:54:58;30.27;;;9.70;;
26082;SDS011;13848;49.018;12.078;2023-02-15T07:57:24;27.63;;;10.23;;
26082;SDS011;13848;49.018;12.078;2023-02-15T07:59:50;25.52;;;10.30;;
26082;SDS011;13848;49.018;12.078;2023-02-15T08:02:16;25.90;;;9.85;;
26082;SDS011;13848;49.018;12.078;2023-02-15T08:04:42;23.48;;;9.68;;
26082;SDS011;13848;49.018;12.078;2023-02-15T08:07:08;31.05;;;9.02;;
26082;SDS011;13848;49.018;12.078;2023-02-15T08:09:34;21.27;;;7.90;;
26082;SDS011;13848;49.018;12.078;2023-02-15T08:12:01;24.17;;;9.55;;
26082;SDS011;13848;49.018;12.078;2023-02-15T08:14:27;23.00;;;9.02;;
26082;SDS011;13848;49.018;12.078;2023-02-15T08:16:53;23.23;;;9.38;;
26082;SDS011;13848;49.018;12.078;2023-02-15T08:19:21;30.23;;;10.75;;
26082;SDS011;13848;49.018;12.078;2023-02-15T08:21:48;32.65;;;11.15;;
26082;SDS011;13848;49.018;12.078;2023-02-15T08:24:16;34.60;;;10.13;;
26082;SDS011;13848;49.018;12.078;2023-02-15T08:26:44;25.17;;;10.55;;
26082;SDS011;13848;49.018;12.078;2023-02-15T08:29:12;37.17;;;10.88;;
26082;SDS011;13848;49.018;12.078;2023-02-15T08:31:39;26.67;;;11.27;;
26082;SDS011;13848;49.018;12.078;2023-02-15T08:34:05;26.30;;;9.82;;
26082;SDS011;13848;49.018;12.078;2023-02-15T08:36:31;31.65;;;10.90;;
26082;SDS011;13848;49.018;12.078;2023-02-15T08:38:57;26.48;;;10.52;;
26082;SDS011;13848;49.018;12.078;2023-02-15T08:41:25;33.65;;;10.65;;
26082;SDS011;13848;49.018;12.078;2023-02-15T08:43:52;29.45;;;11.07;;
26082;SDS011;13848;49.018;12.078;2023-02-15T08:46:21;29.73;;;10.70;;
26082;SDS011;13848;49.018;12.078;2023-02-15T08:48:49;23.42;;;10.20;;
26082;SDS011;13848;49.018;12.078;2023-02-15T08:51:16;25.00;;;10.90;;
26082;SDS011;13848;49.018;12.078;2023-02-15T08:53:44;31.17;;;10.65;;
26082;SDS011;13848;49.018;12.078;2023-02-15T08:56:12;26.80;;;10.25;;
26082;SDS011;13848;49.018;12.078;2023-02-15T08:58:38;25.50;;;9.73;;
26082;SDS011;13848;49.018;12.078;2023-02-15T09:01:10;28.52;;;11.00;;
26082;SDS011;13848;49.018;12.078;2023-02-15T09:03:39;27.85;;;10.48;;
26082;SDS011;13848;49.018;12.078;2023-02-15T09:06:05;25.83;;;10.32;;
26082;SDS011;13848;49.018;12.078;2023-02-15T09:08:31;24.08;;;10.00;;
26082;SDS011;13848;49.018;12.078;2023-02-15T09:11:04;22.88;;;10.25;;
26082;SDS011;13848;49.018;12.078;2023-02-15T09:13:32;27.98;;;10.05;;
26082;SDS011;13848;49.018;12.078;2023-02-15T09:15:59;23.05;;;10.05;;
26082;SDS011;13848;49.018;12.078;2023-02-15T09:18:25;25.63;;;11.10;;
26082;SDS011;13848;49.018;12.078;2023-02-15T09:20:52;23.85;;;10.18;;
26082;SDS011;13848;49.018;12.078;2023-02-15T09:23:18;21.00;;;9.95;;
26082;SDS011;13848;49.018;12.078;2023-02-15T09:25:44;26.30;;;10.70;;
26082;SDS011;13848;49.018;12.078;2023-02-15T09:28:10;23.45;;;9.98;;
26082;SDS011;13848;49.018;12.078;2023-02-15T09:30:37;20.73;;;9.98;;
26082;SDS011;13848;49.018;12.078;2023-02-15T09:33:02;23.27;;;9.88;;
26082;SDS011;13848;49.018;12.078;2023-02-15T09:35:28;33.05;;;10.20;;
26082;SDS011;13848;49.018;12.078;2023-02-15T09:37:56;22.30;;;9.57;;
26082;SDS011;13848;49.018;12.078;2023-02-15T09:40:22;25.52;;;10.13;;
26082;SDS011;13848;49.018;12.078;2023-02-15T09:46:06;29.83;;;11.00;;
26082;SDS011;13848;49.018;12.078;2023-02-15T09:48:44;25.90;;;9.68;;
26082;SDS011;13848;49.018;12.078;2023-02-15T09:51:19;22.52;;;9.68;;
26082;SDS011;13848;49.018;12.078;2023-02-15T09:56:57;22.85;;;10.75;;
26082;SDS011;13848;49.018;12.078;2023-02-15T09:59:27;21.60;;;9.48;;
26082;SDS011;13848;49.018;12.078;2023-02-15T10:02:02;24.10;;;10.73;;
26082;SDS011;13848;49.018;12.078;2023-02-15T10:04:48;20.67;;;9.77;;
26082;SDS011;13848;49.018;12.078;2023-02-15T10:07:23;20.75;;;9.23;;
26082;SDS011;13848;49.018;12.078;2023-02-15T10:10:16;21.15;;;9.73;;
26082;SDS011;13848;49.018;12.078;2023-02-15T10:12:54;23.08;;;10.18;;
26082;SDS011;13848;49.018;12.078;2023-02-15T10:15:39;23.92;;;9.82;;
26082;SDS011;13848;49.018;12.078;2023-02-15T10:18:22;24.45;;;10.57;;
26082;SDS011;13848;49.018;12.078;2023-02-15T10:21:07;23.48;;;10.15;;
26082;SDS011;13848;49.018;12.078;2023-02-15T10:26:40;23.98;;;10.63;;
26082;SDS011;13848;49.018;12.078;2023-02-15T10:29:11;19.55;;;9.77;;
26082;SDS011;13848;49.018;12.078;2023-02-15T10:31:47;21.35;;;9.90;;
26082;SDS011;13848;49.018;12.078;2023-02-15T10:34:15;26.83;;;10.48;;
26082;SDS011;13848;49.018;12.078;2023-02-15T10:36:54;25.98;;;9.88;;
26082;SDS011;13848;49.018;12.078;2023-02-15T10:39:40;20.70;;;9.55;;
26082;SDS011;13848;49.018;12.078;2023-02-15T10:42:19;23.75;;;9.93;;
26082;SDS011;13848;49.018;12.078;2023-02-15T10:45:01;25.52;;;10.70;;
26082;SDS011;13848;49.018;12.078;2023-02-15T10:47:41;29.30;;;10.52;;
26082;SDS011;13848;49.018;12.078;2023-02-15T10:50:24;23.33;;;10.23;;
26082;SDS011;13848;49.018;12.078;2023-02-15T10:53:11;22.23;;;9.93;;
26082;SDS011;13848;49.018;12.078;2023-02-15T10:55:50;24.05;;;10.35;;
26082;SDS011;13848;49.018;12.078;2023-02-15T10:58:24;24.52;;;9.77;;
26082;SDS011;13848;49.018;12.078;2023-02-15T11:01:04;23.90;;;10.93;;
26082;SDS011;13848;49.018;12.078;2023-02-15T11:03:36;22.83;;;11.13;;
26082;SDS011;13848;49.018;12.078;2023-02-15T11:06:13;22.20;;;10.10;;
26082;SDS011;13848;49.018;12.078;2023-02-15T11:08:43;23.88;;;10.63;;
26082;SDS011;13848;49.018;12.078;2023-02-15T11:11:12;26.33;;;11.80;;
26082;SDS011;13848;49.018;12.078;2023-02-15T11:13:48;21.30;;;10.02;;
26082;SDS011;13848;49.018;12.078;2023-02-15T11:16:17;25.80;;;11.33;;
26082;SDS011;13848;49.018;12.078;2023-02-15T11:18:48;22.35;;;10.70;;
26082;SDS011;13848;49.018;12.078;2023-02-15T11:21:21;23.20;;;11.10;;
26082;SDS011;13848;49.018;12.078;2023-02-15T11:23:49;23.33;;;9.75;;
26082;SDS011;13848;49.018;12.078;2023-02-15T11:26:18;20.95;;;9.95;;
26082;SDS011;13848;49.018;12.078;2023-02-15T11:28:49;21.45;;;10.05;;
26082;SDS011;13848;49.018;12.078;2023-02-15T11:31:20;22.48;;;11.05;;
26082;SDS011;13848;49.018;12.078;2023-02-15T11:33:49;24.70;;;9.98;;
26082;SDS011;13848;49.018;12.078;2023-02-15T11:36:19;26.75;;;11.25;;
26082;SDS011;13848;49.018;12.078;2023-02-15T11:38:49;24.98;;;11.27;;
26082;SDS011;13848;49.018;12.078;2023-02-15T11:41:22;23.13;;;11.48;;
26082;SDS011;13848;49.018;12.078;2023-02-15T11:43:56;23.80;;;10.68;;
26082;SDS011;13848;49.018;12.078;2023-02-15T11:46:27;25.48;;;11.07;;
26082;SDS011;13848;49.018;12.078;2023-02-15T11:48:53;22.25;;;11.27;;
26082;SDS011;13848;49.018;12.078;2023-02-15T11:51:20;25.17;;;11.25;;
26082;SDS011;13848;49.018;12.078;2023-02-15T11:53:47;29.30;;;12.45;;
26082;SDS011;13848;49.018;12.078;2023-02-15T11:56:14;26.15;;;12.30;;
26082;SDS011;13848;49.018;12.078;2023-02-15T11:58:42;22.85;;;11.40;;
26082;SDS011;13848;49.018;12.078;2023-02-15T12:01:14;28.50;;;12.25;;
26082;SDS011;13848;49.018;12.078;2023-02-15T12:03:44;24.92;;;11.73;;
26082;SDS011;13848;49.018;12.078;2023-02-15T12:06:15;26.02;;;11.73;;
26082;SDS011;13848;49.018;12.078;2023-02-15T12:08:46;24.42;;;10.70;;
26082;SDS011;13848;49.018;12.078;2023-02-15T12:11:18;24.45;;;11.98;;
26082;SDS011;13848;49.018;12.078;2023-02-15T12:13:54;22.75;;;11.98;;
26082;SDS011;13848;49.018;12.078;2023-02-15T12:16:23;24.63;;;12.15;;
26082;SDS011;13848;49.018;12.078;2023-02-15T12:18:50;27.60;;;11.77;;
26082;SDS011;13848;49.018;12.078;2023-02-15T12:21:23;27.17;;;11.80;;
26082;SDS011;13848;49.018;12.078;2023-02-15T12:23:52;28.65;;;12.50;;
26082;SDS011;13848;49.018;12.078;2023-02-15T12:26:23;26.63;;;12.43;;
26082;SDS011;13848;49.018;12.078;2023-02-15T12:28:50;26.98;;;13.00;;
26082;SDS011;13848;49.018;12.078;2023-02-15T12:31:19;28.90;;;13.23;;
26082;SDS011;13848;49.018;12.078;2023-02-15T12:33:49;28.40;;;12.95;;
26082;SDS011;13848;49.018;12.078;2023-02-15T12:36:19;28.92;;;13.30;;
26082;SDS011;13848;49.018;12.078;2023-02-15T12:39:02;37.15;;;14.70;;
26082;SDS011;13848;49.018;12.078;2023-02-15T12:41:30;28.73;;;12.95;;
26082;SDS011;13848;49.018;12.078;2023-02-15T12:44:03;33.15;;;14.27;;
26082;SDS011;13848;49.018;12.078;2023-02-15T12:46:31;31.75;;;13.63;;
26082;SDS011;13848;49.018;12.078;2023-02-15T12:49:13;32.88;;;14.90;;
26082;SDS011;13848;49.018;12.078;2023-02-15T12:51:43;35.90;;;15.07;;
26082;SDS011;13848;49.018;12.078;2023-02-15T12:54:20;29.52;;;13.55;;
26082;SDS011;13848;49.018;12.078;2023-02-15T12:56:55;31.90;;;13.30;;
26082;SDS011;13848;49.018;12.078;2023-02-15T12:59:21;33.13;;;15.43;;
26082;SDS011;13848;49.018;12.078;2023-02-15T13:01:47;32.53;;;14.80;;
26082;SDS011;13848;49.018;12.078;2023-02-15T13:04:20;32.28;;;13.88;;
26082;SDS011;13848;49.018;12.078;2023-02-15T13:06:50;33.90;;;14.43;;
26082;SDS011;13848;49.018;12.078;2023-02-15T13:09:19;34.80;;;14.68;;
26082;SDS011;13848;49.018;12.078;2023-02-15T13:11:46;34.55;;;15.27;;
26082;SDS011;13848;49.018;12.078;2023-02-15T13:14:16;33.50;;;14.70;;
26082;SDS011;13848;49.018;12.078;2023-02-15T13:16:44;29.48;;;13.82;;
26082;SDS011;13848;49.018;12.078;2023-02-15T13:19:14;30.45;;;13.70;;
26082;SDS011;13848;49.018;12.078;2023-02-15T13:21:44;36.80;;;15.30;;
26082;SDS011;13848;49.018;12.078;2023-02-15T13:24:15;32.45;;;15.02;;
26082;SDS011;13848;49.018;12.078;2023-02-15T13:26:45;31.85;;;14.93;;
26082;SDS011;13848;49.018;12.078;2023-02-15T13:29:15;34.40;;;15.43;;
26082;SDS011;13848;49.018;12.078;2023-02-15T13:31:46;35.83;;;16.20;;
26082;SDS011;13848;49.018;12.078;2023-02-15T13:34:17;31.50;;;14.02;;
26082;SDS011;13848;49.018;12.078;2023-02-15T13:36:49;33.92;;;14.55;;
26082;SDS011;13848;49.018;12.078;2023-02-15T13:39:22;31.55;;;15.55;;
26082;SDS011;13848;49.018;12.078;2023-02-15T13:41:54;33.78;;;14.73;;
26082;SDS011;13848;49.018;12.078;2023-02-15T13:44:29;31.58;;;14.48;;
26082;SDS011;13848;49.018;12.078;2023-02-15T13:47:13;32.92;;;14.70;;
26082;SDS011;13848;49.018;12.078;2023-02-15T13:49:53;32.20;;;14.10;;
26082;SDS011;13848;49.018;12.078;2023-02-15T13:52:30;36.03;;;16.17;;
26082;SDS011;13848;49.018;12.078;2023-02-15T13:58:00;32.03;;;14.40;;
26082;SDS011;13848;49.018;12.078;2023-02-15T14:00:44;32.53;;;14.32;;
26082;SDS011;13848;49.018;12.078;2023-02-15T14:03:26;33.67;;;14.55;;
26082;SDS011;13848;49.018;12.078;2023-02-15T14:06:14;29.15;;;14.43;;
26082;SDS011;13848;49.018;12.078;2023-02-15T14:09:03;28.00;;;13.32;;
26082;SDS011;13848;49.018;12.078;2023-02-15T14:11:38;33.22;;;15.13;;
26082;SDS011;13848;49.018;12.078;2023-02-15T14:14:11;31.60;;;14.68;;
26082;SDS011;13848;49.018;12.078;2023-02-15T14:17:10;28.30;;;13.10;;
26082;SDS011;13848;49.018;12.078;2023-02-15T14:19:43;31.80;;;14.57;;
26082;SDS011;13848;49.018;12.078;2023-02-15T14:22:17;31.15;;;15.20;;
26082;SDS011;13848;49.018;12.078;2023-02-15T14:24:52;31.73;;;14.30;;
26082;SDS011;13848;49.018;12.078;2023-02-15T14:27:26;31.30;;;13.45;;
26082;SDS011;13848;49.018;12.078;2023-02-15T14:30:12;28.30;;;13.10;;
26082;SDS011;13848;49.018;12.078;2023-02-15T14:32:43;29.73;;;13.52;;
26082;SDS011;13848;49.018;12.078;2023-02-15T14:35:14;29.52;;;13.93;;
26082;SDS011;13848;49.018;12.078;2023-02-15T14:37:44;28.63;;;13.95;;
26082;SDS011;13848;49.018;12.078;2023-02-15T14:40:17;33.65;;;13.90;;
26082;SDS011;13848;49.018;12.078;2023-02-15T14:42:56;29.42;;;13.23;;
26082;SDS011;13848;49.018;12.078;2023-02-15T14:45:27;34.20;;;14.82;;
26082;SDS011;13848;49.018;12.078;2023-02-15T14:48:01;33.22;;;14.18;;